Time;durP1;ratioP1;P1;durP2;ratioP2;P2;SDS_P1;SDS_P2;PMS_P1;PMS_P2;Temp;Humidity;BMP_temperature;BMP_pressure;BME280_temperature;BME280_humidity;BME280_pressure;Samples;Min_cycle;Max_cycle;Signal;HPM_P1;HPM_P2
2021/04/27 00:02:18;;;;;;;3.33;2.70;;;12.30;28.10;;;;;;5050758;28;20698;-52
2021/04/27 00:04:45;;;;;;;3.90;2.80;;;12.20;28.20;;;;;;5040160;28;20661;-51
2021/04/27 00:07:12;;;;;;;3.00;2.70;;;12.20;28.20;;;;;;5041830;28;20693;-52
2021/04/27 00:09:38;;;;;;;2.80;2.20;;;12.20;28.20;;;;;;5033614;28;20630;-51
2021/04/27 00:12:07;;;;;;;3.00;2.53;;;12.20;28.30;;;;;;5050595;28;20991;-51
2021/04/27 00:14:34;;;;;;;5.00;2.60;;;12.10;28.30;;;;;;5053512;28;20664;-50
2021/04/27 00:17:00;;;;;;;2.57;2.37;;;12.10;28.40;;;;;;5053017;28;20716;-51
2021/04/27 00:19:27;;;;;;;3.80;2.67;;;12.10;28.60;;;;;;5039260;28;20659;-50
2021/04/27 00:21:54;;;;;;;2.60;2.40;;;12.10;28.60;;;;;;5046348;28;20768;-50
2021/04/27 00:24:21;;;;;;;3.70;3.00;;;12.20;28.70;;;;;;5049759;28;20657;-50
2021/04/27 00:26:47;;;;;;;7.47;3.17;;;12.10;28.50;;;;;;5039544;28;22757;-50
2021/04/27 00:29:15;;;;;;;2.73;2.53;;;12.20;28.50;;;;;;5032997;28;20627;-50
2021/04/27 00:31:42;;;;;;;2.93;2.63;;;12.20;28.40;;;;;;5035920;28;20627;-50
2021/04/27 00:34:08;;;;;;;5.07;2.80;;;12.10;28.40;;;;;;5038751;28;20631;-50
2021/04/27 00:36:35;;;;;;;2.60;2.30;;;12.10;28.30;;;;;;5051685;28;20666;-50
2021/04/27 00:39:03;;;;;;;2.90;2.00;;;12.00;28.20;;;;;;5047084;28;20623;-50
2021/04/27 00:41:29;;;;;;;2.47;2.27;;;12.00;28.30;;;;;;5033340;28;21253;-50
2021/04/27 00:43:56;;;;;;;2.13;2.00;;;11.90;28.40;;;;;;5033107;28;20651;-50
2021/04/27 00:46:24;;;;;;;4.60;2.10;;;11.80;28.30;;;;;;5040235;28;20723;-51
2021/04/27 00:48:50;;;;;;;2.20;2.00;;;11.80;28.40;;;;;;5051922;28;20622;-51
2021/04/27 00:51:17;;;;;;;3.03;2.73;;;11.70;28.70;;;;;;5034323;28;20654;-51
2021/04/27 00:53:44;;;;;;;3.47;2.50;;;11.70;28.40;;;;;;5031508;28;20746;-50
2021/04/27 00:56:11;;;;;;;5.30;2.60;;;11.70;28.50;;;;;;5032546;28;20627;-50
2021/04/27 00:58:37;;;;;;;1.80;1.70;;;11.70;28.50;;;;;;5032457;28;20635;-50
2021/04/27 01:01:04;;;;;;;3.03;2.67;;;11.70;28.40;;;;;;5032533;28;21005;-49
2021/04/27 01:03:32;;;;;;;6.33;2.10;;;11.60;28.40;;;;;;5038664;28;21056;-49
2021/04/27 01:05:58;;;;;;;3.47;2.60;;;11.60;28.50;;;;;;5050523;28;21179;-49
2021/04/27 01:08:27;;;;;;;4.93;2.10;;;11.50;28.50;;;;;;5043518;28;20626;-50
2021/04/27 01:11:01;;;;;;;1.90;1.80;;;11.40;28.60;;;;;;5048098;28;20657;-50
2021/04/27 01:13:38;;;;;;;3.33;1.90;;;11.40;28.70;;;;;;5052265;28;21028;-50
2021/04/27 01:16:05;;;;;;;4.13;2.20;;;11.40;28.80;;;;;;5046038;28;20647;-50
2021/04/27 01:18:32;;;;;;;2.70;2.10;;;11.40;28.90;;;;;;5037483;28;20661;-50
2021/04/27 01:21:00;;;;;;;3.00;2.63;;;11.40;28.90;;;;;;5032507;28;20796;-49
2021/04/27 01:23:52;;;;;;;3.60;1.93;;;11.30;28.90;;;;;;5032611;28;20727;-50
2021/04/27 01:26:33;;;;;;;4.83;2.40;;;11.30;28.90;;;;;;5028870;28;20662;-49
2021/04/27 01:29:00;;;;;;;4.37;2.80;;;11.20;29.00;;;;;;5032128;28;21032;-50
2021/04/27 01:31:27;;;;;;;2.20;1.90;;;11.20;29.10;;;;;;5038802;28;20645;-50
2021/04/27 01:33:54;;;;;;;2.87;2.43;;;11.20;29.10;;;;;;5039237;28;20617;-50
2021/04/27 01:36:21;;;;;;;3.03;2.20;;;11.20;29.10;;;;;;5050100;28;21210;-49
2021/04/27 01:38:48;;;;;;;2.90;2.37;;;11.20;29.20;;;;;;5044996;28;20630;-50
2021/04/27 01:41:14;;;;;;;2.33;2.13;;;11.20;29.20;;;;;;5032100;28;20941;-50
2021/04/27 01:43:42;;;;;;;2.50;1.90;;;11.20;29.10;;;;;;5052424;28;20685;-49
2021/04/27 01:46:09;;;;;;;4.00;2.60;;;11.20;29.20;;;;;;5051683;28;21005;-49
2021/04/27 01:48:36;;;;;;;2.50;2.27;;;11.20;29.20;;;;;;5051806;28;21031;-50
2021/04/27 01:51:04;;;;;;;2.20;1.97;;;11.20;29.20;;;;;;5051698;28;20671;-50
2021/04/27 01:53:31;;;;;;;1.90;1.70;;;11.10;29.20;;;;;;5051453;28;20618;-50
2021/04/27 01:55:58;;;;;;;2.53;2.20;;;11.10;29.20;;;;;;5051230;28;20626;-49
2021/04/27 01:58:24;;;;;;;2.47;2.30;;;11.10;29.40;;;;;;5050829;28;20622;-50
2021/04/27 02:00:52;;;;;;;3.00;2.03;;;11.10;29.70;;;;;;5031960;28;20796;-49
2021/04/27 02:03:18;;;;;;;3.70;2.20;;;11.00;29.20;;;;;;5032828;28;21016;-50
2021/04/27 02:05:45;;;;;;;5.57;3.07;;;11.00;29.30;;;;;;5032820;28;20630;-50
2021/04/27 02:08:12;;;;;;;4.33;2.33;;;11.00;29.30;;;;;;5030997;28;20712;-49
2021/04/27 02:10:40;;;;;;;3.83;1.80;;;11.00;29.70;;;;;;5031516;28;20634;-50
2021/04/27 02:13:10;;;;;;;3.13;2.43;;;10.90;29.40;;;;;;5038206;28;20629;-50
2021/04/27 02:15:37;;;;;;;2.57;2.00;;;10.90;29.40;;;;;;5046632;28;21029;-50
2021/04/27 02:18:09;;;;;;;2.43;1.93;;;10.90;29.50;;;;;;5051139;28;20658;-50
2021/04/27 02:20:36;;;;;;;7.87;2.37;;;10.90;29.40;;;;;;5050778;28;20666;-50
2021/04/27 02:23:03;;;;;;;2.27;2.00;;;10.90;29.50;;;;;;5051096;28;20625;-50
2021/04/27 02:25:29;;;;;;;4.23;1.87;;;10.80;29.50;;;;;;5050907;28;20660;-50
2021/04/27 02:27:56;;;;;;;2.20;2.00;;;10.80;29.60;;;;;;5038403;28;21239;-50
2021/04/27 02:30:24;;;;;;;4.23;2.47;;;10.80;29.80;;;;;;5050781;28;20686;-50
2021/04/27 02:32:50;;;;;;;3.10;2.30;;;10.80;30.00;;;;;;5049152;28;20621;-50
2021/04/27 02:35:19;;;;;;;3.03;2.53;;;10.80;29.70;;;;;;5040628;28;20657;-51
2021/04/27 02:37:48;;;;;;;2.63;1.70;;;10.80;29.70;;;;;;5040258;28;20692;-51
2021/04/27 02:40:16;;;;;;;2.83;2.03;;;10.80;29.70;;;;;;5032629;28;21192;-50
2021/04/27 02:42:44;;;;;;;1.70;1.60;;;10.70;29.70;;;;;;5051193;28;20632;-50
2021/04/27 02:45:12;;;;;;;4.63;2.50;;;10.70;29.80;;;;;;5048401;28;21019;-50
2021/04/27 02:47:39;;;;;;;2.20;1.93;;;10.70;29.80;;;;;;5048106;28;20665;-50
2021/04/27 02:50:06;;;;;;;3.03;2.00;;;10.70;29.80;;;;;;5052430;28;20644;-50
2021/04/27 02:52:34;;;;;;;2.00;1.73;;;10.70;29.80;;;;;;5060774;28;21155;-50
2021/04/27 02:55:00;;;;;;;5.50;2.30;;;10.60;29.80;;;;;;5041865;28;20630;-50
2021/04/27 02:57:27;;;;;;;3.00;2.30;;;10.60;29.90;;;;;;5050264;28;20700;-50
2021/04/27 02:59:54;;;;;;;2.60;2.20;;;10.60;29.90;;;;;;5050512;28;20642;-50
2021/04/27 03:02:21;;;;;;;3.77;2.27;;;10.60;29.90;;;;;;5032761;28;20677;-50
2021/04/27 03:04:47;;;;;;;2.20;1.50;;;10.60;29.80;;;;;;5040391;28;20649;-49
2021/04/27 03:07:14;;;;;;;3.27;1.70;;;10.50;29.90;;;;;;5050710;28;20657;-50
2021/04/27 03:09:42;;;;;;;3.43;2.17;;;10.50;30.00;;;;;;5050634;28;21157;-50
2021/04/27 03:12:09;;;;;;;2.70;1.60;;;10.50;30.00;;;;;;5054515;28;20629;-50
2021/04/27 03:14:35;;;;;;;2.20;1.70;;;10.40;29.90;;;;;;5053611;28;20633;-50
2021/04/27 03:17:02;;;;;;;1.80;1.70;;;10.40;30.00;;;;;;5052245;28;20669;-50
2021/04/27 03:19:29;;;;;;;3.33;1.60;;;10.40;30.10;;;;;;5053904;28;20637;-50
2021/04/27 03:21:56;;;;;;;3.07;2.87;;;10.40;30.10;;;;;;5052123;28;20682;-51
2021/04/27 03:24:22;;;;;;;5.43;2.00;;;10.40;30.20;;;;;;5034488;28;20658;-51
2021/04/27 03:26:50;;;;;;;2.73;1.90;;;10.30;30.20;;;;;;5046145;28;20661;-50
2021/04/27 03:29:17;;;;;;;2.00;1.83;;;10.30;30.30;;;;;;5053576;28;20672;-51
2021/04/27 03:31:43;;;;;;;2.10;1.80;;;10.30;30.40;;;;;;5039324;28;21197;-51
2021/04/27 03:34:10;;;;;;;4.70;1.57;;;10.30;30.50;;;;;;5037630;28;20634;-51
2021/04/27 03:36:37;;;;;;;6.23;2.27;;;10.30;30.60;;;;;;5045354;28;20716;-51
2021/04/27 03:39:04;;;;;;;2.37;2.03;;;10.30;30.70;;;;;;5033488;28;20688;-51
2021/04/27 03:41:30;;;;;;;2.10;1.80;;;10.30;30.50;;;;;;5052145;28;20626;-51
2021/04/27 03:43:58;;;;;;;5.47;1.63;;;10.30;30.50;;;;;;5046579;28;20658;-51
2021/04/27 03:46:24;;;;;;;3.77;2.10;;;10.30;30.60;;;;;;5042667;28;20665;-51
2021/04/27 03:48:51;;;;;;;2.03;1.70;;;10.30;30.70;;;;;;5053399;28;20636;-51
2021/04/27 03:51:18;;;;;;;1.80;1.63;;;10.30;30.60;;;;;;5041232;28;20641;-51
2021/04/27 03:53:45;;;;;;;3.30;1.57;;;10.30;30.50;;;;;;5033740;28;20679;-51
2021/04/27 03:56:11;;;;;;;2.83;2.10;;;10.30;30.50;;;;;;5033421;28;20642;-51
2021/04/27 03:58:39;;;;;;;3.67;1.80;;;10.30;30.50;;;;;;5033560;28;20629;-51
2021/04/27 04:01:07;;;;;;;5.20;2.30;;;10.20;31.00;;;;;;5033870;28;20660;-51
2021/04/27 04:03:35;;;;;;;2.87;1.90;;;10.20;30.90;;;;;;5035295;28;20626;-51
2021/04/27 04:06:01;;;;;;;2.80;2.00;;;10.20;30.90;;;;;;5053159;28;20715;-51
2021/04/27 04:08:28;;;;;;;3.97;1.87;;;10.20;30.90;;;;;;5043155;28;20695;-51
2021/04/27 04:10:55;;;;;;;2.30;1.70;;;10.20;30.90;;;;;;5053088;28;21170;-51
2021/04/27 04:13:22;;;;;;;7.40;2.70;;;10.10;31.40;;;;;;5053724;28;20648;-51
2021/04/27 04:15:48;;;;;;;2.60;2.40;;;10.20;31.30;;;;;;5039398;28;20637;-51
2021/04/27 04:18:16;;;;;;;1.90;1.60;;;10.10;31.30;;;;;;5043693;28;20708;-51
2021/04/27 04:20:42;;;;;;;2.17;1.80;;;10.10;31.50;;;;;;5041189;28;20662;-51
2021/04/27 04:23:09;;;;;;;2.00;1.80;;;10.10;31.50;;;;;;5033093;28;21049;-50
2021/04/27 04:25:36;;;;;;;3.97;2.27;;;10.10;31.40;;;;;;5037798;28;20663;-51
2021/04/27 04:28:03;;;;;;;2.20;2.00;;;10.10;31.30;;;;;;5032862;28;21223;-51
2021/04/27 04:30:30;;;;;;;3.03;1.77;;;10.20;31.30;;;;;;5046664;28;20667;-51
2021/04/27 04:32:56;;;;;;;3.43;2.00;;;10.10;31.20;;;;;;5052502;28;20632;-51
2021/04/27 04:35:25;;;;;;;3.40;1.73;;;10.10;31.30;;;;;;5047600;28;20634;-51
2021/04/27 04:37:52;;;;;;;3.30;2.13;;;10.10;31.40;;;;;;5032672;28;21051;-50
2021/04/27 04:40:18;;;;;;;2.60;1.93;;;10.10;31.40;;;;;;5039270;28;20626;-50
2021/04/27 04:42:45;;;;;;;3.23;1.90;;;10.10;31.30;;;;;;5051823;28;20634;-50
2021/04/27 04:45:13;;;;;;;5.70;2.03;;;10.10;31.30;;;;;;5051464;28;20664;-50
2021/04/27 04:47:40;;;;;;;2.67;1.77;;;10.10;31.40;;;;;;5048999;28;20718;-51
2021/04/27 04:50:08;;;;;;;2.40;1.90;;;10.10;31.30;;;;;;5032620;28;20631;-51
2021/04/27 04:52:35;;;;;;;4.10;2.13;;;10.10;31.30;;;;;;5039620;28;20630;-50
2021/04/27 04:55:02;;;;;;;3.63;2.30;;;10.10;31.20;;;;;;5051805;28;21220;-51
2021/04/27 04:57:29;;;;;;;2.50;1.80;;;10.20;31.30;;;;;;5050860;28;20742;-50
2021/04/27 04:59:56;;;;;;;2.30;1.50;;;10.20;31.40;;;;;;5052216;28;20626;-50
2021/04/27 05:02:23;;;;;;;2.70;1.83;;;10.20;31.30;;;;;;5051292;28;20626;-50
2021/04/27 05:04:49;;;;;;;3.03;1.60;;;10.30;31.30;;;;;;5045352;28;20681;-50
2021/04/27 05:07:16;;;;;;;2.50;1.93;;;10.30;31.30;;;;;;5040082;28;20653;-49
2021/04/27 05:09:44;;;;;;;3.30;1.87;;;10.30;31.10;;;;;;5049621;28;20642;-51
2021/04/27 05:12:10;;;;;;;6.70;1.93;;;10.30;31.10;;;;;;5051901;28;20654;-51
2021/04/27 05:14:41;;;;;;;2.90;1.97;;;10.40;31.10;;;;;;5045487;28;20660;-50
2021/04/27 05:17:08;;;;;;;1.70;1.57;;;10.40;31.00;;;;;;5049949;28;20674;-48
2021/04/27 05:19:35;;;;;;;3.93;1.57;;;10.40;30.70;;;;;;5051753;28;20622;-51
2021/04/27 05:22:02;;;;;;;2.60;2.30;;;10.40;30.80;;;;;;5035207;28;20700;-51
2021/04/27 05:24:29;;;;;;;1.87;1.77;;;10.50;30.60;;;;;;5032580;28;20715;-50
2021/04/27 05:26:56;;;;;;;2.50;2.00;;;10.50;30.50;;;;;;5035531;28;20663;-50
2021/04/27 05:29:23;;;;;;;2.67;2.43;;;10.50;30.50;;;;;;5035144;28;20638;-50
2021/04/27 05:31:52;;;;;;;1.80;1.70;;;10.50;30.50;;;;;;5051705;28;20630;-50
2021/04/27 05:34:19;;;;;;;4.60;2.30;;;10.50;30.50;;;;;;5048836;28;20640;-51
2021/04/27 05:36:45;;;;;;;4.57;1.77;;;10.50;30.70;;;;;;5047581;28;20720;-51
2021/04/27 05:39:13;;;;;;;3.20;2.10;;;10.60;30.60;;;;;;5038908;28;21041;-51
2021/04/27 05:41:40;;;;;;;2.27;1.80;;;10.60;30.40;;;;;;5034912;28;21253;-51
2021/04/27 05:44:08;;;;;;;2.30;2.10;;;10.60;30.40;;;;;;5041404;28;20630;-51
2021/04/27 05:46:34;;;;;;;1.70;1.60;;;10.70;30.50;;;;;;5050903;28;20670;-51
2021/04/27 05:49:01;;;;;;;2.70;1.90;;;10.70;30.50;;;;;;5049721;28;20760;-52
2021/04/27 05:51:28;;;;;;;5.47;2.67;;;10.80;30.20;;;;;;5050720;28;20634;-51
2021/04/27 05:53:55;;;;;;;2.00;1.70;;;10.80;30.30;;;;;;5049559;28;20625;-51
2021/04/27 05:56:21;;;;;;;3.53;2.07;;;10.80;30.30;;;;;;5049421;28;20658;-52
2021/04/27 05:58:48;;;;;;;1.77;1.63;;;10.80;30.20;;;;;;5049999;28;21041;-51
2021/04/27 06:01:16;;;;;;;3.73;2.17;;;10.90;30.10;;;;;;5055686;28;20961;-52
2021/04/27 06:03:42;;;;;;;2.13;1.90;;;10.90;30.20;;;;;;5050471;28;20634;-51
2021/04/27 06:06:09;;;;;;;3.20;2.53;;;11.00;30.40;;;;;;5037933;28;20709;-51
2021/04/27 06:08:36;;;;;;;4.37;2.13;;;11.00;30.40;;;;;;5049765;28;20634;-52
2021/04/27 06:11:04;;;;;;;11.30;2.20;;;11.10;30.20;;;;;;5033957;28;20684;-51
2021/04/27 06:13:31;;;;;;;4.17;2.10;;;11.20;30.10;;;;;;5049050;28;20827;-51
2021/04/27 06:15:57;;;;;;;3.53;1.97;;;11.20;30.00;;;;;;5032990;28;20634;-51
2021/04/27 06:18:25;;;;;;;2.83;2.27;;;11.30;30.00;;;;;;5040016;28;20803;-52
2021/04/27 06:20:52;;;;;;;5.67;2.30;;;11.40;30.00;;;;;;5038216;28;21010;-51
2021/04/27 06:23:18;;;;;;;5.40;2.90;;;11.40;30.00;;;;;;5030753;28;20623;-52
2021/04/27 06:25:45;;;;;;;4.00;2.40;;;11.40;29.90;;;;;;5037227;28;20703;-51
2021/04/27 06:28:13;;;;;;;2.37;1.80;;;11.50;29.70;;;;;;5050372;28;21537;-52
2021/04/27 06:30:40;;;;;;;3.53;2.60;;;11.50;29.40;;;;;;5049438;28;20622;-52
2021/04/27 06:33:07;;;;;;;2.70;2.30;;;11.50;29.40;;;;;;5048839;28;20660;-52
2021/04/27 06:35:34;;;;;;;2.20;2.00;;;11.50;29.30;;;;;;5039781;28;20630;-52
2021/04/27 06:38:02;;;;;;;3.53;2.60;;;11.50;29.40;;;;;;5033595;28;20691;-52
2021/04/27 06:40:29;;;;;;;4.30;2.30;;;11.60;29.30;;;;;;5038969;28;21175;-52
2021/04/27 06:42:55;;;;;;;3.33;2.13;;;11.60;29.10;;;;;;5034818;28;20620;-52
2021/04/27 06:45:22;;;;;;;2.60;2.00;;;11.60;28.90;;;;;;5040610;28;20659;-51
2021/04/27 06:47:49;;;;;;;3.03;2.73;;;11.70;28.90;;;;;;5043042;28;20658;-52
2021/04/27 06:50:16;;;;;;;2.63;2.10;;;11.70;29.00;;;;;;5041312;28;20688;-52
2021/04/27 06:52:44;;;;;;;4.00;2.70;;;11.80;29.00;;;;;;5043326;28;20638;-52
2021/04/27 06:55:11;;;;;;;4.00;1.90;;;11.90;29.60;;;;;;5043082;28;20621;-52
2021/04/27 06:57:38;;;;;;;3.00;2.70;;;11.90;29.10;;;;;;5044508;28;20680;-52
2021/04/27 07:00:07;;;;;;;5.03;2.77;;;12.00;29.00;;;;;;5041768;28;20634;-52
2021/04/27 07:02:33;;;;;;;5.10;2.40;;;12.10;29.10;;;;;;5025090;28;20630;-53
2021/04/27 07:05:00;;;;;;;4.70;2.50;;;12.10;28.90;;;;;;5041061;28;20704;-52
2021/04/27 07:07:27;;;;;;;6.23;2.60;;;12.20;28.90;;;;;;5045060;28;20686;-52
2021/04/27 07:09:54;;;;;;;4.10;2.53;;;12.20;28.90;;;;;;5040539;28;20794;-52
2021/04/27 07:12:22;;;;;;;5.30;2.50;;;12.30;29.10;;;;;;5042105;28;20624;-52
2021/04/27 07:14:49;;;;;;;3.53;3.23;;;12.50;28.90;;;;;;5041405;28;20629;-52
2021/04/27 07:17:15;;;;;;;2.93;2.73;;;12.70;28.80;;;;;;5042618;28;20724;-52
2021/04/27 07:19:42;;;;;;;3.40;2.93;;;12.80;28.40;;;;;;5042337;28;20622;-51
2021/04/27 07:22:22;;;;;;;2.77;2.37;;;12.90;28.40;;;;;;5041802;28;20683;-52
2021/04/27 07:24:52;;;;;;;4.60;2.70;;;13.00;28.20;;;;;;5042310;28;20699;-52
2021/04/27 07:27:19;;;;;;;6.13;2.80;;;13.00;28.00;;;;;;5044317;28;20656;-52
2021/04/27 07:29:46;;;;;;;5.37;2.97;;;13.00;28.00;;;;;;5041225;28;20691;-51
2021/04/27 07:32:14;;;;;;;4.40;2.23;;;12.90;28.00;;;;;;5041500;28;22294;-51
2021/04/27 07:34:40;;;;;;;2.80;2.40;;;12.80;28.20;;;;;;5022785;28;20632;-52
2021/04/27 07:37:07;;;;;;;4.47;2.83;;;12.90;28.40;;;;;;5043328;28;20787;-51
2021/04/27 07:39:34;;;;;;;4.10;2.70;;;13.00;28.40;;;;;;5044121;28;20676;-51
2021/04/27 07:42:01;;;;;;;4.43;3.40;;;13.00;28.50;;;;;;5042370;28;20624;-51
2021/04/27 07:44:29;;;;;;;2.60;2.33;;;13.10;28.70;;;;;;5043562;28;20686;-52
2021/04/27 07:46:55;;;;;;;5.53;2.40;;;13.20;28.40;;;;;;5041098;28;20816;-51
2021/04/27 07:49:22;;;;;;;8.63;3.80;;;13.50;28.40;;;;;;5041805;28;20625;-52
2021/04/27 07:51:49;;;;;;;3.93;2.67;;;13.70;28.40;;;;;;5039555;28;21187;-51
2021/04/27 07:54:16;;;;;;;4.23;2.03;;;14.10;28.30;;;;;;5046786;28;20665;-51
2021/04/27 07:56:42;;;;;;;4.40;2.70;;;14.50;27.90;;;;;;5044060;28;20662;-53
2021/04/27 07:59:09;;;;;;;5.53;2.77;;;14.80;27.40;;;;;;5051046;28;20704;-52
2021/04/27 08:01:37;;;;;;;2.70;2.50;;;15.10;27.00;;;;;;5039230;28;21237;-51
2021/04/27 08:04:04;;;;;;;3.10;2.60;;;15.40;26.80;;;;;;5044632;28;20621;-51
2021/04/27 08:06:31;;;;;;;4.00;2.70;;;15.60;26.60;;;;;;5040314;28;20756;-51
2021/04/27 08:08:58;;;;;;;4.13;3.10;;;15.80;26.50;;;;;;5041072;28;20685;-51
2021/04/27 08:11:25;;;;;;;2.80;2.60;;;16.00;26.30;;;;;;5033062;28;20654;-51
2021/04/27 08:13:52;;;;;;;5.83;2.67;;;16.20;26.10;;;;;;5043678;28;20626;-51
2021/04/27 08:16:20;;;;;;;3.80;2.50;;;16.40;25.80;;;;;;5043546;28;21070;-52
2021/04/27 08:18:48;;;;;;;4.07;2.77;;;16.50;25.40;;;;;;5043380;28;20641;-51
2021/04/27 08:21:15;;;;;;;3.00;2.80;;;16.60;25.50;;;;;;5052598;28;20626;-51
2021/04/27 08:23:42;;;;;;;4.80;2.93;;;16.80;25.70;;;;;;5052043;28;21194;-51
2021/04/27 08:26:10;;;;;;;3.57;3.27;;;16.90;25.10;;;;;;5048968;28;20680;-51
2021/04/27 08:28:37;;;;;;;4.73;4.20;;;17.00;25.00;;;;;;5035458;28;20661;-52
2021/04/27 08:31:04;;;;;;;4.53;4.00;;;16.90;24.90;;;;;;5049356;28;21039;-52
2021/04/27 08:33:31;;;;;;;6.17;3.23;;;16.90;25.30;;;;;;5063451;28;21158;-52
2021/04/27 08:35:58;;;;;;;3.27;3.07;;;16.90;25.20;;;;;;5059867;28;21186;-51
2021/04/27 08:38:25;;;;;;;6.47;3.60;;;16.90;25.10;;;;;;5052430;28;20622;-52
2021/04/27 08:40:54;;;;;;;5.53;3.60;;;17.00;25.30;;;;;;5051581;28;20633;-52
2021/04/27 08:43:20;;;;;;;3.70;3.23;;;16.90;25.00;;;;;;5052857;28;20661;-52
2021/04/27 08:45:47;;;;;;;6.60;2.97;;;16.90;25.20;;;;;;5052000;28;20743;-52
2021/04/27 08:48:15;;;;;;;2.90;2.70;;;17.00;25.20;;;;;;5047976;28;21222;-52
2021/04/27 08:50:42;;;;;;;3.20;2.90;;;17.00;25.10;;;;;;5025966;28;20626;-52
2021/04/27 08:53:09;;;;;;;4.30;3.63;;;17.10;25.10;;;;;;5052356;28;20634;-51
2021/04/27 08:55:39;;;;;;;3.63;3.33;;;17.20;25.50;;;;;;5037330;28;20631;-53
2021/04/27 08:58:06;;;;;;;3.47;3.27;;;17.40;25.10;;;;;;5034114;28;20717;-53
2021/04/27 09:00:33;;;;;;;4.27;3.00;;;17.70;24.90;;;;;;5048594;28;20661;-52
2021/04/27 09:03:02;;;;;;;5.23;3.60;;;18.00;25.00;;;;;;5052338;28;20622;-52
2021/04/27 09:05:33;;;;;;;6.53;4.10;;;18.10;24.60;;;;;;5051518;28;20657;-52
2021/04/27 09:07:59;;;;;;;3.53;3.23;;;18.10;24.40;;;;;;5048100;28;21186;-52
2021/04/27 09:10:28;;;;;;;4.60;3.87;;;18.10;24.20;;;;;;5040232;28;20629;-51
2021/04/27 09:12:56;;;;;;;4.80;3.50;;;18.10;24.00;;;;;;5044188;28;20657;-52
2021/04/27 09:15:27;;;;;;;5.47;4.93;;;18.10;24.10;;;;;;5044767;28;20615;-53
2021/04/27 09:17:54;;;;;;;5.80;3.50;;;18.10;24.80;;;;;;5032890;28;20647;-52
2021/04/27 09:20:21;;;;;;;5.60;3.50;;;18.10;24.30;;;;;;5039841;28;20748;-51
2021/04/27 09:22:48;;;;;;;4.10;2.90;;;18.10;24.50;;;;;;5040765;28;20676;-52
2021/04/27 09:25:17;;;;;;;3.43;2.90;;;18.00;24.50;;;;;;5031716;28;20734;-52
2021/04/27 09:27:47;;;;;;;5.03;4.17;;;17.80;24.70;;;;;;5032859;28;20681;-51
2021/04/27 09:30:18;;;;;;;9.43;4.70;;;17.80;25.00;;;;;;5046299;28;20704;-55
2021/04/27 09:32:46;;;;;;;3.57;3.27;;;17.80;24.60;;;;;;5055622;28;20617;-52
2021/04/27 09:35:34;;;;;;;4.50;4.10;;;18.00;24.40;;;;;;5028551;28;20623;-52
2021/04/27 09:38:13;;;;;;;4.70;4.00;;;18.10;24.20;;;;;;5047848;28;20649;-50
2021/04/27 09:40:47;;;;;;;6.80;4.63;;;18.20;24.20;;;;;;5034846;28;21186;-53
2021/04/27 09:43:15;;;;;;;4.20;3.83;;;18.40;24.30;;;;;;5052009;28;20632;-51
2021/04/27 09:45:43;;;;;;;5.07;4.53;;;18.70;24.30;;;;;;5042758;28;20662;-52
2021/04/27 09:48:10;;;;;;;4.40;4.10;;;19.00;24.10;;;;;;5051298;28;20700;-54
2021/04/27 09:50:37;;;;;;;4.80;4.50;;;19.40;23.80;;;;;;5051482;28;21044;-51
2021/04/27 09:53:05;;;;;;;4.47;4.07;;;19.90;23.70;;;;;;5051694;28;20933;-51
2021/04/27 09:55:34;;;;;;;6.27;4.70;;;20.40;23.20;;;;;;5050523;28;20691;-52
2021/04/27 09:58:01;;;;;;;5.67;4.93;;;20.70;22.90;;;;;;5036504;28;20659;-51
2021/04/27 10:00:32;;;;;;;7.53;4.70;;;21.00;22.70;;;;;;5042846;28;20622;-52
2021/04/27 10:03:01;;;;;;;6.03;4.80;;;21.20;22.20;;;;;;5050605;28;20648;-51
2021/04/27 10:05:28;;;;;;;6.83;4.87;;;21.20;22.40;;;;;;5049472;28;21175;-51
2021/04/27 10:07:57;;;;;;;7.87;5.47;;;21.20;22.40;;;;;;5043405;28;20662;-52
2021/04/27 10:10:25;;;;;;;5.93;4.93;;;21.20;22.50;;;;;;5036425;28;21059;-52
2021/04/27 10:12:52;;;;;;;5.77;4.70;;;21.30;22.40;;;;;;5050638;28;21061;-52
2021/04/27 10:15:19;;;;;;;8.77;5.07;;;21.30;22.10;;;;;;5036483;28;20788;-52
2021/04/27 10:17:47;;;;;;;6.60;5.40;;;21.30;22.30;;;;;;5047245;28;20650;-51
2021/04/27 10:20:26;;;;;;;5.63;5.10;;;21.30;22.10;;;;;;5015496;28;21018;-53
2021/04/27 10:22:52;;;;;;;5.67;4.70;;;21.00;22.30;;;;;;5031000;28;21323;-51
2021/04/27 10:25:20;;;;;;;6.80;5.50;;;20.90;22.60;;;;;;5031015;28;20670;-51
2021/04/27 10:27:53;;;;;;;5.27;4.77;;;20.90;22.50;;;;;;5030704;28;20650;-51
2021/04/27 10:30:30;;;;;;;5.50;4.80;;;20.90;22.90;;;;;;5044813;28;21186;-51
2021/04/27 10:33:25;;;;;;;9.10;4.77;;;21.00;23.10;;;;;;5051728;28;20708;-53
2021/04/27 10:36:20;;;;;;;5.77;5.27;;;21.30;22.80;;;;;;5036768;28;21181;-52
2021/04/27 10:38:49;;;;;;;5.40;4.97;;;21.80;22.70;;;;;;5053104;28;20636;-51
2021/04/27 10:41:17;;;;;;;6.37;5.23;;;22.10;22.50;;;;;;5069350;28;20629;-50
2021/04/27 10:43:45;;;;;;;5.63;5.00;;;22.30;22.10;;;;;;5057680;28;20641;-51
2021/04/27 10:46:53;;;;;;;4.40;3.87;;;22.50;22.10;;;;;;5040435;28;20717;-51
2021/04/27 10:49:27;;;;;;;6.93;5.50;;;22.50;21.90;;;;;;5045195;28;20711;-52
2021/04/27 10:51:54;;;;;;;6.50;5.40;;;22.30;22.00;;;;;;5058102;28;20653;-52
2021/04/27 10:54:23;;;;;;;5.07;4.67;;;22.30;22.20;;;;;;5055165;28;20622;-50
2021/04/27 10:56:51;;;;;;;6.60;5.40;;;22.40;22.30;;;;;;5050162;28;20661;-50
2021/04/27 10:59:18;;;;;;;6.13;5.50;;;22.20;21.90;;;;;;5049517;28;20618;-51
2021/04/27 11:01:46;;;;;;;6.90;5.87;;;21.80;21.80;;;;;;5045631;28;20635;-51
2021/04/27 11:04:33;;;;;;;4.70;4.13;;;21.60;22.30;;;;;;5030537;28;20627;-50
2021/04/27 11:07:15;;;;;;;5.33;4.93;;;21.50;22.30;;;;;;5038346;28;20667;-51
2021/04/27 11:09:43;;;;;;;5.23;4.50;;;21.40;21.90;;;;;;5047681;28;20626;-52
2021/04/27 11:12:31;;;;;;;6.13;5.53;;;21.30;22.30;;;;;;5047977;28;20706;-52
2021/04/27 11:14:59;;;;;;;8.53;6.80;;;21.70;22.10;;;;;;5046399;28;20684;-51
2021/04/27 11:17:27;;;;;;;6.23;4.80;;;22.40;22.10;;;;;;5049974;28;20707;-52
2021/04/27 11:19:58;;;;;;;7.10;6.13;;;22.80;21.40;;;;;;5048382;28;20675;-54
2021/04/27 11:22:26;;;;;;;5.77;5.27;;;23.20;21.40;;;;;;5059502;28;20648;-52
2021/04/27 11:24:56;;;;;;;5.70;5.20;;;23.80;21.30;;;;;;5045188;28;20639;-54
2021/04/27 11:27:28;;;;;;;4.80;4.50;;;24.40;21.20;;;;;;5016296;28;21318;-52
2021/04/27 11:29:57;;;;;;;6.17;5.57;;;24.90;20.70;;;;;;5030721;28;20635;-52
2021/04/27 11:32:24;;;;;;;8.90;6.10;;;25.10;19.90;;;;;;5035365;28;20696;-51
2021/04/27 11:35:08;;;;;;;8.93;5.93;;;24.80;19.50;;;;;;5057978;28;20657;-52
2021/04/27 11:37:36;;;;;;;6.70;6.10;;;24.40;19.80;;;;;;5073550;28;20648;-52
2021/04/27 11:40:20;;;;;;;6.80;6.10;;;24.10;19.20;;;;;;5059529;28;20630;-52
2021/04/27 11:42:52;;;;;;;6.33;5.03;;;23.60;19.40;;;;;;5053407;28;20617;-51
2021/04/27 11:45:18;;;;;;;5.27;4.73;;;23.20;19.80;;;;;;5053359;28;20630;-52
2021/04/27 11:47:47;;;;;;;6.00;5.10;;;22.60;20.20;;;;;;5052493;28;20702;-52
2021/04/27 11:50:15;;;;;;;5.57;4.97;;;22.30;20.40;;;;;;5053952;28;20629;-51
2021/04/27 11:52:45;;;;;;;5.50;5.00;;;22.20;20.30;;;;;;5053354;28;20630;-52
2021/04/27 11:55:15;;;;;;;9.07;5.30;;;22.50;20.70;;;;;;5053276;28;20642;-51
2021/04/27 11:57:43;;;;;;;5.20;4.70;;;22.80;20.80;;;;;;5052423;28;20688;-51
2021/04/27 12:00:11;;;;;;;6.27;4.73;;;23.30;20.50;;;;;;5053116;28;20633;-51
2021/04/27 12:02:38;;;;;;;6.27;5.77;;;23.80;20.10;;;;;;5053714;28;20625;-52
2021/04/27 12:05:05;;;;;;;6.07;5.20;;;24.40;20.00;;;;;;5053130;28;20692;-52
2021/04/27 12:07:33;;;;;;;6.03;5.53;;;24.40;19.40;;;;;;5052589;28;20716;-52
2021/04/27 12:10:00;;;;;;;6.00;5.53;;;24.20;19.30;;;;;;5053304;28;21028;-52
2021/04/27 12:12:27;;;;;;;5.70;4.43;;;23.90;19.20;;;;;;5052399;28;20629;-51
2021/04/27 12:14:55;;;;;;;5.10;4.70;;;23.70;19.60;;;;;;5053186;28;21057;-57
2021/04/27 12:17:29;;;;;;;6.43;5.83;;;23.60;19.20;;;;;;5052175;28;21199;-51
2021/04/27 12:20:10;;;;;;;10.23;6.30;;;23.30;18.50;;;;;;5052923;28;20671;-51
2021/04/27 12:22:42;;;;;;;11.20;6.07;;;23.60;19.20;;;;;;5052971;28;21193;-52
2021/04/27 12:25:20;;;;;;;5.03;4.53;;;24.20;19.00;;;;;;5053030;28;20691;-51
2021/04/27 12:27:47;;;;;;;5.20;4.70;;;24.70;18.70;;;;;;5057767;28;21233;-50
2021/04/27 12:30:17;;;;;;;7.40;5.10;;;25.00;18.40;;;;;;5072928;28;20651;-51
2021/04/27 12:32:47;;;;;;;10.00;6.10;;;24.90;18.20;;;;;;5040898;28;20749;-51
2021/04/27 12:35:21;;;;;;;5.70;5.13;;;24.80;18.40;;;;;;5072371;28;20621;-52
2021/04/27 12:38:00;;;;;;;5.90;5.40;;;24.70;18.40;;;;;;5049746;28;20699;-51
2021/04/27 12:40:28;;;;;;;9.60;6.30;;;24.40;18.60;;;;;;5044970;28;20652;-51
2021/04/27 12:42:57;;;;;;;7.00;5.13;;;24.20;18.90;;;;;;5050693;28;20675;-51
2021/04/27 12:45:23;;;;;;;7.63;5.93;;;24.30;19.00;;;;;;5047724;28;20622;-51
2021/04/27 12:48:00;;;;;;;4.93;4.53;;;24.40;19.00;;;;;;5051512;28;20693;-51
2021/04/27 12:50:27;;;;;;;8.40;6.10;;;24.40;18.90;;;;;;5031837;28;20712;-52
2021/04/27 12:52:56;;;;;;;5.30;4.80;;;24.40;19.00;;;;;;5032813;28;20620;-53